Time;durP1;ratioP1;P1;durP2;ratioP2;P2;SDS_P1;SDS_P2;PMS_P1;PMS_P2;Temp;Humidity;BMP_temperature;BMP_pressure;BME280_temperature;BME280_humidity;BME280_pressure;Samples;Min_cycle;Max_cycle;Signal;HPM_P1;HPM_P2
2020/12/21 00:02:05;;;;;;;41.27;19.33;;;2.30;99.90;;;;;;4980570;28;20183;-95
2020/12/21 00:04:33;;;;;;;45.50;19.83;;;-0.60;99.90;;;;;;4977583;28;20236;-96
2020/12/21 00:07:01;;;;;;;44.10;18.87;;;3.30;99.90;;;;;;4977229;28;20211;-96
2020/12/21 00:09:32;;;;;;;43.00;18.90;;;0.80;99.90;;;;;;4977210;28;20193;-95
2020/12/21 00:11:58;;;;;;;43.20;18.83;;;1.50;99.90;;;;;;4979266;28;20189;-96
2020/12/21 00:14:29;;;;;;;37.97;17.33;;;3.30;99.90;;;;;;4978369;28;20187;-95
2020/12/21 00:16:58;;;;;;;42.87;19.23;;;1.50;99.90;;;;;;4963087;28;20595;-96
2020/12/21 00:19:29;;;;;;;45.83;20.67;;;2.80;99.90;;;;;;4979532;28;20571;-96
2020/12/21 00:21:55;;;;;;;43.73;19.37;;;2.20;99.90;;;;;;4978526;28;20285;-96
2020/12/21 00:24:27;;;;;;;44.67;20.93;;;3.40;99.90;;;;;;4979212;28;20186;-96
2020/12/21 00:26:55;;;;;;;41.07;17.87;;;3.90;99.90;;;;;;4979641;28;20233;-96
2020/12/21 00:29:26;;;;;;;38.40;17.73;;;1.60;99.90;;;;;;4962880;28;20186;-96
2020/12/21 00:31:55;;;;;;;34.67;17.63;;;1.20;99.90;;;;;;4945794;28;20823;-96
2020/12/21 00:34:27;;;;;;;38.17;15.73;;;3.20;99.90;;;;;;4963645;28;20218;-96
2020/12/21 00:36:55;;;;;;;36.47;15.57;;;1.60;99.90;;;;;;4976671;28;20226;-96
2020/12/21 00:39:22;;;;;;;39.27;17.13;;;3.00;99.90;;;;;;4974968;28;20233;-95
2020/12/21 00:41:48;;;;;;;47.40;19.90;;;0.00;99.90;;;;;;4975548;28;20239;-95
2020/12/21 00:44:15;;;;;;;51.83;25.53;;;3.30;99.90;;;;;;4975088;28;20182;-95
2020/12/21 00:46:41;;;;;;;51.33;30.50;;;4.00;99.90;;;;;;4943514;28;20283;-96
2020/12/21 00:49:11;;;;;;;54.30;21.67;;;1.50;99.90;;;;;;4975146;28;20185;-95
2020/12/21 00:51:43;;;;;;;52.07;21.03;;;3.10;99.90;;;;;;4977103;28;20189;-96
2020/12/21 00:54:14;;;;;;;39.10;18.13;;;2.30;99.90;;;;;;4960093;28;20245;-96
2020/12/21 00:56:42;;;;;;;41.93;19.67;;;1.60;99.90;;;;;;4975409;28;20190;-96
2020/12/21 00:59:10;;;;;;;38.23;17.40;;;1.60;99.90;;;;;;4975959;28;20628;-96
2020/12/21 01:01:36;;;;;;;31.03;15.53;;;1.80;99.90;;;;;;4975746;28;20277;-96
2020/12/21 01:04:05;;;;;;;35.77;16.07;;;2.70;99.90;;;;;;4974938;28;20214;-96
2020/12/21 01:06:35;;;;;;;37.73;17.00;;;3.30;99.90;;;;;;4975523;28;20190;-96
2020/12/21 01:09:08;;;;;;;39.43;16.60;;;3.40;99.90;;;;;;4975415;28;20709;-94
2020/12/21 01:11:35;;;;;;;35.93;16.03;;;2.60;99.90;;;;;;4975009;28;20186;-96
2020/12/21 01:14:01;;;;;;;40.40;17.80;;;3.50;99.90;;;;;;4974849;28;20272;-96
2020/12/21 01:16:33;;;;;;;44.23;18.07;;;2.70;99.90;;;;;;4974455;28;20205;-95
2020/12/21 01:18:59;;;;;;;31.00;16.20;;;3.30;99.90;;;;;;4974326;28;20243;-96
2020/12/21 01:21:32;;;;;;;34.53;15.53;;;2.90;99.90;;;;;;4976127;28;20551;-96
2020/12/21 01:23:59;;;;;;;32.23;14.77;;;1.40;99.90;;;;;;4979038;28;20182;-96
2020/12/21 01:26:28;;;;;;;33.83;15.63;;;3.40;99.90;;;;;;4977148;28;20177;-96
2020/12/21 01:28:59;;;;;;;33.20;15.27;;;1.50;99.90;;;;;;4979568;28;20265;-96
2020/12/21 01:31:34;;;;;;;;;;;;;;;;;;;;;
2020/12/21 01:34:18;;;;;;;;;;;;;;;;;;;;;
2020/12/21 01:37:19;;;;;;;33.70;14.73;;;1.30;99.90;;;;;;4974448;28;20187;-96
2020/12/21 01:39:52;;;;;;;35.43;16.30;;;1.90;99.90;;;;;;4973792;28;20635;-95
2020/12/21 01:42:23;;;;;;;39.50;18.87;;;2.40;99.90;;;;;;4957901;28;20288;-95
2020/12/21 01:45:11;;;;;;;35.23;16.10;;;3.10;99.90;;;;;;4974423;28;20193;-96
2020/12/21 01:47:51;;;;;;;35.40;15.30;;;1.60;99.90;;;;;;4976746;28;20690;-96
2020/12/21 01:50:18;;;;;;;34.37;15.93;;;1.50;99.90;;;;;;4959158;28;20225;-96
2020/12/21 01:52:46;;;;;;;30.83;15.63;;;1.60;99.90;;;;;;4979804;28;20218;-96
2020/12/21 01:55:17;;;;;;;35.80;16.60;;;1.50;99.90;;;;;;4980831;28;20584;-96
2020/12/21 01:57:48;;;;;;;32.27;15.33;;;1.40;99.90;;;;;;4981659;28;20186;-96
2020/12/21 02:00:14;;;;;;;35.10;16.00;;;1.60;99.90;;;;;;4978174;28;20209;-96
2020/12/21 02:02:40;;;;;;;37.50;16.27;;;1.40;99.90;;;;;;4977935;28;20568;-96
2020/12/21 02:05:06;;;;;;;36.43;16.17;;;1.40;99.90;;;;;;4979994;28;20181;-96
2020/12/21 02:07:37;;;;;;;31.20;15.20;;;1.40;99.90;;;;;;4961810;28;20643;-96
2020/12/21 02:10:06;;;;;;;33.23;15.37;;;1.50;99.90;;;;;;4978568;28;20277;-96
2020/12/21 02:12:31;;;;;;;30.30;15.27;;;1.80;99.90;;;;;;4965136;28;20221;-96
2020/12/21 02:15:02;;;;;;;33.40;15.83;;;1.60;99.90;;;;;;4979054;28;20178;-96
2020/12/21 02:17:28;;;;;;;29.93;15.30;;;2.70;99.90;;;;;;4965422;28;20221;-96
2020/12/21 02:19:56;;;;;;;35.97;16.67;;;1.70;99.90;;;;;;4990354;28;20182;-96
2020/12/21 02:23:07;;;;;;;34.07;16.30;;;1.60;99.90;;;;;;4993742;28;20179;-96
2020/12/21 02:25:38;;;;;;;34.00;15.63;;;2.80;99.90;;;;;;4983279;28;20214;-96
2020/12/21 02:28:04;;;;;;;38.00;16.37;;;2.60;99.90;;;;;;4973225;28;20179;-96
2020/12/21 02:30:38;;;;;;;35.90;16.27;;;0.80;99.90;;;;;;4985440;28;20174;-96
2020/12/21 02:33:09;;;;;;;43.97;18.63;;;0.60;99.90;;;;;;4987321;28;20241;-96
2020/12/21 02:35:36;;;;;;;31.17;15.27;;;1.60;99.90;;;;;;4970221;28;20202;-96
2020/12/21 02:38:10;;;;;;;31.93;16.30;;;3.10;99.90;;;;;;4988333;28;20193;-96
2020/12/21 02:40:43;;;;;;;37.83;16.47;;;2.20;99.90;;;;;;4989933;28;20189;-96
2020/12/21 02:43:25;;;;;;;37.40;17.80;;;1.10;99.90;;;;;;4987402;28;20663;-96
2020/12/21 02:46:00;;;;;;;40.63;17.07;;;3.40;99.90;;;;;;4972473;28;20187;-96
2020/12/21 02:48:26;;;;;;;35.40;16.83;;;0.80;99.90;;;;;;4992842;28;20181;-96
2020/12/21 02:51:16;;;;;;;;;;;;;;;;;;;;;
2020/12/21 02:53:45;;;;;;;30.37;14.87;;;2.30;99.90;;;;;;4989505;28;20302;-96
2020/12/21 02:56:15;;;;;;;39.40;16.43;;;2.00;99.90;;;;;;4973331;28;20182;-96
2020/12/21 02:58:43;;;;;;;39.77;16.03;;;1.40;99.90;;;;;;4984158;28;20214;-96
2020/12/21 03:01:17;;;;;;;33.23;15.30;;;2.60;99.90;;;;;;4982975;28;20270;-96
2020/12/21 03:03:45;;;;;;;29.73;14.50;;;1.60;99.90;;;;;;4986538;28;20183;-96
2020/12/21 03:06:16;;;;;;;41.63;20.20;;;3.40;99.90;;;;;;4992203;28;20185;-96
2020/12/21 03:08:45;;;;;;;35.87;16.17;;;1.40;99.90;;;;;;4988610;28;20198;-96
2020/12/21 03:11:18;;;;;;;37.27;16.30;;;2.80;99.90;;;;;;4988918;28;20206;-96
2020/12/21 03:13:44;;;;;;;35.50;16.87;;;1.70;99.90;;;;;;4984990;28;20289;-96
2020/12/21 03:16:15;;;;;;;37.30;17.17;;;2.30;99.90;;;;;;5000321;28;20162;-96
2020/12/21 03:18:41;;;;;;;33.93;15.33;;;3.10;99.90;;;;;;4978628;28;20194;-96
2020/12/21 03:21:09;;;;;;;31.23;14.40;;;2.70;99.90;;;;;;4982922;28;20186;-96
2020/12/21 03:23:35;;;;;;;30.57;13.47;;;1.50;99.90;;;;;;4980434;28;20203;-96
2020/12/21 03:26:03;;;;;;;28.60;14.23;;;1.70;99.90;;;;;;4995478;28;20648;-96
2020/12/21 03:28:29;;;;;;;29.53;14.33;;;2.70;99.90;;;;;;4996845;28;20233;-96
2020/12/21 03:30:55;;;;;;;29.23;13.70;;;1.30;99.90;;;;;;4998365;28;20170;-96
2020/12/21 03:33:23;;;;;;;31.87;14.53;;;1.40;99.90;;;;;;4997949;28;20210;-96
2020/12/21 03:35:52;;;;;;;30.67;14.70;;;2.70;99.90;;;;;;4999313;28;20195;-96
2020/12/21 03:38:18;;;;;;;30.40;14.33;;;2.60;99.90;;;;;;5016117;23;20218;-95
2020/12/21 03:40:44;;;;;;;29.30;13.93;;;3.70;99.90;;;;;;5051193;23;20441;-93
2020/12/21 03:43:18;;;;;;;27.73;13.90;;;3.60;99.90;;;;;;5004770;28;20226;-95
2020/12/21 03:45:45;;;;;;;31.20;14.50;;;2.80;99.90;;;;;;5002682;28;20237;-95
2020/12/21 03:48:14;;;;;;;34.53;15.40;;;3.20;99.90;;;;;;5001422;28;20186;-96
2020/12/21 03:50:39;;;;;;;32.50;14.43;;;1.40;99.90;;;;;;4983724;28;20205;-95
2020/12/21 03:53:08;;;;;;;27.27;13.10;;;1.20;99.90;;;;;;5003164;28;20216;-95
2020/12/21 03:55:37;;;;;;;28.87;13.23;;;1.90;99.90;;;;;;5002831;28;20178;-95
2020/12/21 03:58:03;;;;;;;28.43;13.60;;;3.30;99.90;;;;;;5003091;28;20170;-96
2020/12/21 04:00:29;;;;;;;30.33;13.13;;;2.90;99.90;;;;;;4989924;28;20236;-96
2020/12/21 04:02:55;;;;;;;32.23;15.80;;;1.40;99.90;;;;;;4979679;28;20189;-94
2020/12/21 04:05:21;;;;;;;37.73;18.67;;;2.60;99.90;;;;;;4979262;28;20181;-91
2020/12/21 04:07:47;;;;;;;36.67;16.23;;;3.40;99.90;;;;;;4977970;28;20189;-94
2020/12/21 04:10:13;;;;;;;31.63;15.80;;;3.20;99.90;;;;;;4978602;28;20174;-92
2020/12/21 04:12:39;;;;;;;31.10;14.80;;;1.30;99.90;;;;;;4978691;28;20236;-92
2020/12/21 04:15:05;;;;;;;47.80;19.83;;;1.60;99.90;;;;;;4978383;28;20227;-95
2020/12/21 04:17:31;;;;;;;57.40;23.53;;;1.30;99.90;;;;;;4979073;28;20178;-91
2020/12/21 04:19:57;;;;;;;79.30;29.33;;;2.30;99.90;;;;;;4977886;28;20701;-94
2020/12/21 04:22:22;;;;;;;131.90;44.97;;;1.30;99.90;;;;;;4976880;28;20284;-92
2020/12/21 04:24:48;;;;;;;148.27;48.93;;;2.90;99.90;;;;;;4977115;28;20236;-94
2020/12/21 04:27:14;;;;;;;146.77;50.37;;;2.80;99.90;;;;;;4976510;28;20762;-93
2020/12/21 04:29:40;;;;;;;136.00;45.63;;;2.70;99.90;;;;;;4978854;28;20186;-96
2020/12/21 04:32:09;;;;;;;112.73;40.67;;;3.50;99.90;;;;;;4978922;28;20174;-94
2020/12/21 04:34:35;;;;;;;152.47;57.03;;;2.90;99.90;;;;;;4979721;28;20184;-95
2020/12/21 04:37:04;;;;;;;127.73;49.63;;;0.80;99.90;;;;;;4978599;28;20277;-96
2020/12/21 04:39:31;;;;;;;76.33;30.13;;;3.70;99.90;;;;;;4978481;28;20178;-95
2020/12/21 04:41:58;;;;;;;108.30;40.53;;;2.50;99.90;;;;;;4977208;28;20266;-94
2020/12/21 04:44:32;;;;;;;63.90;25.87;;;1.40;99.90;;;;;;4978526;28;20244;-95
2020/12/21 04:46:58;;;;;;;123.27;37.70;;;3.20;99.90;;;;;;4962029;28;20190;-95
2020/12/21 04:49:25;;;;;;;103.83;31.60;;;2.60;99.90;;;;;;4978457;28;20185;-95
2020/12/21 04:51:51;;;;;;;73.03;27.50;;;3.20;99.90;;;;;;4978056;28;20182;-94
2020/12/21 04:54:22;;;;;;;72.43;28.77;;;1.40;99.90;;;;;;4978559;28;20227;-94
2020/12/21 04:56:48;;;;;;;84.63;31.43;;;1.40;99.90;;;;;;4977765;28;20548;-95
2020/12/21 04:59:14;;;;;;;64.27;25.33;;;3.00;99.90;;;;;;4978173;28;20185;-96
2020/12/21 05:01:42;;;;;;;56.97;23.70;;;1.20;99.90;;;;;;4995382;28;20243;-95
2020/12/21 05:04:08;;;;;;;57.33;21.77;;;0.70;99.90;;;;;;4977929;28;20185;-96
2020/12/21 05:06:34;;;;;;;56.23;22.53;;;2.30;99.90;;;;;;4992935;28;20177;-95
2020/12/21 05:09:05;;;;;;;48.43;21.03;;;1.20;99.90;;;;;;4980963;28;20192;-96
2020/12/21 05:11:33;;;;;;;46.50;20.87;;;3.20;99.90;;;;;;4975933;28;20594;-96
2020/12/21 05:14:09;;;;;;;55.67;22.63;;;2.20;99.90;;;;;;4952179;28;20230;-94
2020/12/21 05:16:38;;;;;;;45.37;20.03;;;0.50;99.90;;;;;;4966164;28;20178;-94
2020/12/21 05:19:05;;;;;;;43.53;18.83;;;3.10;99.90;;;;;;4975167;28;20201;-95
2020/12/21 05:21:32;;;;;;;58.33;23.57;;;2.00;99.90;;;;;;4958285;28;20269;-95
2020/12/21 05:24:02;;;;;;;45.87;20.73;;;1.20;99.90;;;;;;4958043;28;20182;-96
2020/12/21 05:26:30;;;;;;;56.07;23.17;;;3.40;99.90;;;;;;4963143;28;20179;-95
2020/12/21 05:28:56;;;;;;;50.27;22.03;;;1.20;99.90;;;;;;4964627;28;20599;-92
2020/12/21 05:31:25;;;;;;;48.50;20.27;;;2.10;99.90;;;;;;4961829;28;20186;-94
2020/12/21 05:34:00;;;;;;;42.07;18.47;;;3.30;99.90;;;;;;4961313;28;20241;-95
2020/12/21 05:36:28;;;;;;;60.07;27.73;;;1.40;99.90;;;;;;4963140;28;20182;-93
2020/12/21 05:38:55;;;;;;;46.40;20.13;;;1.40;99.90;;;;;;4978810;28;20253;-94
2020/12/21 05:41:21;;;;;;;35.47;17.40;;;2.80;99.90;;;;;;4979042;28;20276;-94
2020/12/21 05:43:51;;;;;;;54.13;24.83;;;3.20;99.90;;;;;;4962140;28;20182;-94
2020/12/21 05:46:22;;;;;;;43.97;19.50;;;3.50;99.90;;;;;;4962186;28;20202;-94
2020/12/21 05:48:49;;;;;;;43.10;19.97;;;1.20;99.90;;;;;;4971781;28;20271;-95
2020/12/21 05:51:38;;;;;;;40.53;19.83;;;3.40;99.90;;;;;;4987448;28;20178;-94
2020/12/21 05:54:05;;;;;;;46.63;20.63;;;1.20;99.90;;;;;;4989687;28;20202;-94
2020/12/21 05:56:36;;;;;;;46.33;19.93;;;1.20;99.90;;;;;;4970049;28;20591;-96
2020/12/21 05:59:07;;;;;;;46.43;20.83;;;0.50;99.90;;;;;;4975173;28;20182;-96
2020/12/21 06:01:33;;;;;;;41.17;18.57;;;2.30;99.90;;;;;;4952616;28;20278;-96
2020/12/21 06:04:00;;;;;;;44.33;20.10;;;1.50;99.90;;;;;;4978873;28;20213;-94
2020/12/21 06:06:28;;;;;;;37.23;18.57;;;1.30;99.90;;;;;;4970876;28;20184;-95
2020/12/21 06:08:56;;;;;;;46.23;19.63;;;3.10;99.90;;;;;;4970304;28;20206;-95
2020/12/21 06:11:34;;;;;;;42.90;19.40;;;1.50;99.90;;;;;;4972991;28;20232;-96
2020/12/21 06:14:09;;;;;;;46.17;19.57;;;1.40;99.90;;;;;;4996072;28;20217;-89
2020/12/21 06:16:39;;;;;;;37.63;18.87;;;3.30;99.90;;;;;;4959684;28;20186;-88
2020/12/21 06:19:13;;;;;;;36.73;17.90;;;2.40;99.90;;;;;;4959187;28;20190;-88
2020/12/21 06:22:32;;;;;;;41.57;19.13;;;3.50;99.90;;;;;;4945876;28;20183;-96
2020/12/21 06:25:09;;;;;;;45.47;21.27;;;2.80;99.90;;;;;;4976296;28;20182;-96
2020/12/21 06:27:40;;;;;;;47.93;21.60;;;2.40;99.90;;;;;;4963095;28;20215;-95
2020/12/21 06:30:14;;;;;;;41.07;20.50;;;3.80;99.90;;;;;;4977854;28;20261;-94
2020/12/21 06:32:40;;;;;;;45.40;20.33;;;1.90;99.90;;;;;;4979214;28;20257;-96
2020/12/21 06:35:18;;;;;;;47.00;21.87;;;1.70;99.90;;;;;;4947881;28;20179;-96
2020/12/21 06:38:03;;;;;;;47.27;22.20;;;1.40;99.90;;;;;;4985132;28;20186;-95
2020/12/21 06:40:33;;;;;;;45.07;20.43;;;0.50;99.90;;;;;;4982087;28;20605;-96
2020/12/21 06:43:20;;;;;;;46.37;20.83;;;3.20;99.90;;;;;;4983816;28;20222;-96
2020/12/21 06:45:46;;;;;;;45.20;22.13;;;0.70;99.90;;;;;;4987515;28;20166;-96
2020/12/21 06:48:24;;;;;;;41.17;20.20;;;3.60;99.90;;;;;;4991412;28;20183;-96
2020/12/21 06:50:50;;;;;;;45.43;21.43;;;2.30;99.90;;;;;;4986915;28;20678;-96
2020/12/21 06:53:16;;;;;;;49.90;23.63;;;2.80;99.90;;;;;;4965449;28;20213;-96
2020/12/21 06:55:43;;;;;;;39.83;17.90;;;2.70;99.90;;;;;;4978550;28;20190;-96
2020/12/21 06:58:09;;;;;;;44.63;20.17;;;2.50;99.90;;;;;;4976300;28;20260;-96
2020/12/21 07:00:35;;;;;;;45.47;20.90;;;2.90;99.90;;;;;;4980752;28;20181;-95
2020/12/21 07:03:01;;;;;;;55.43;23.13;;;3.30;99.90;;;;;;4978807;28;20190;-93
2020/12/21 07:05:29;;;;;;;57.03;23.93;;;1.10;99.90;;;;;;4979502;28;20178;-95
2020/12/21 07:08:21;;;;;;;48.27;22.67;;;1.60;99.90;;;;;;4979597;28;20245;-94
2020/12/21 07:10:56;;;;;;;44.20;21.33;;;1.90;99.90;;;;;;4992566;28;20190;-94
2020/12/21 07:13:23;;;;;;;47.77;21.10;;;1.30;99.90;;;;;;4979874;28;20220;-96
2020/12/21 07:15:52;;;;;;;48.17;20.90;;;1.20;99.90;;;;;;4964419;28;20209;-96
2020/12/21 07:18:18;;;;;;;57.97;23.67;;;2.30;99.90;;;;;;4981869;28;20182;-95
2020/12/21 07:20:44;;;;;;;51.53;22.27;;;1.30;99.90;;;;;;4979106;28;20680;-94
2020/12/21 07:23:10;;;;;;;55.20;23.00;;;1.30;99.90;;;;;;4980474;28;20201;-95
2020/12/21 07:25:35;;;;;;;57.37;23.87;;;1.30;99.90;;;;;;4980702;28;20181;-95
2020/12/21 07:28:01;;;;;;;65.47;27.53;;;1.30;99.90;;;;;;4979462;28;20185;-96
2020/12/21 07:30:27;;;;;;;66.00;26.97;;;1.10;99.90;;;;;;4981348;28;20264;-91
2020/12/21 07:32:53;;;;;;;64.77;27.13;;;1.10;99.90;;;;;;4979076;28;20367;-92
2020/12/21 07:35:21;;;;;;;54.17;24.23;;;1.10;99.90;;;;;;4979816;28;20185;-92
2020/12/21 07:37:49;;;;;;;55.50;25.63;;;0.10;99.90;;;;;;4980787;28;20181;-93
2020/12/21 07:40:23;;;;;;;54.67;22.97;;;1.80;99.90;;;;;;4980668;28;20646;-96
2020/12/21 07:42:57;;;;;;;54.23;25.27;;;3.30;99.90;;;;;;4983877;28;20232;-96
2020/12/21 07:45:24;;;;;;;50.20;24.53;;;1.30;99.90;;;;;;4984386;28;20273;-94
2020/12/21 07:47:50;;;;;;;51.83;26.80;;;1.10;99.90;;;;;;4966961;28;20190;-96
2020/12/21 07:50:16;;;;;;;47.37;22.30;;;3.70;99.90;;;;;;4981829;28;20605;-95
2020/12/21 07:52:48;;;;;;;55.33;25.00;;;1.10;99.90;;;;;;4983613;28;20221;-94
2020/12/21 07:55:26;;;;;;;59.13;25.53;;;1.40;99.90;;;;;;4982836;28;20173;-95
2020/12/21 07:57:52;;;;;;;53.07;23.93;;;0.90;99.90;;;;;;4982373;28;20618;-93
2020/12/21 08:00:17;;;;;;;54.43;26.53;;;1.10;99.90;;;;;;5000623;28;20259;-95
2020/12/21 08:02:44;;;;;;;59.67;27.07;;;0.10;99.90;;;;;;4982872;28;20185;-94
2020/12/21 08:05:19;;;;;;;64.37;26.37;;;2.50;99.90;;;;;;5002736;28;20182;-95
2020/12/21 08:07:45;;;;;;;56.63;28.07;;;0.00;99.90;;;;;;5000737;28;20190;-92
2020/12/21 08:10:20;;;;;;;53.67;22.03;;;1.90;99.90;;;;;;4964372;28;20181;-94
2020/12/21 08:12:48;;;;;;;53.90;23.40;;;1.20;99.90;;;;;;4980075;28;20215;-95
2020/12/21 08:15:19;;;;;;;53.07;22.20;;;1.40;99.90;;;;;;4981876;28;20517;-93
2020/12/21 08:17:47;;;;;;;44.87;19.77;;;2.60;99.90;;;;;;4983080;28;20295;-93
2020/12/21 08:20:13;;;;;;;37.83;17.40;;;1.30;99.90;;;;;;4971058;28;20189;-91
2020/12/21 08:22:44;;;;;;;56.90;22.83;;;1.20;99.90;;;;;;4993885;28;20652;-93
2020/12/21 08:25:11;;;;;;;44.93;20.37;;;1.40;99.90;;;;;;4957503;28;20865;-91
2020/12/21 08:27:38;;;;;;;47.87;21.43;;;3.30;99.90;;;;;;4970514;28;20236;-94
2020/12/21 08:30:17;;;;;;;52.00;20.90;;;3.60;99.90;;;;;;4987924;28;20189;-93
2020/12/21 08:32:43;;;;;;;75.07;30.00;;;1.40;99.90;;;;;;4960494;28;20245;-93
2020/12/21 08:35:16;;;;;;;71.70;27.60;;;1.50;99.90;;;;;;4961655;28;20175;-96
2020/12/21 08:37:50;;;;;;;60.33;23.83;;;2.40;99.90;;;;;;4963291;28;20185;-94
2020/12/21 08:40:19;;;;;;;77.00;26.63;;;0.10;99.90;;;;;;4965270;28;20183;-94
2020/12/21 08:43:15;;;;;;;57.33;25.00;;;1.40;99.90;;;;;;4968649;28;20788;-96
2020/12/21 08:45:41;;;;;;;54.57;23.87;;;1.30;99.90;;;;;;4963271;28;20190;-93
2020/12/21 08:51:33;;;;;;;63.40;24.60;;;1.60;99.90;;;;;;4977674;28;20204;-94
2020/12/21 08:57:26;;;;;;;54.33;22.53;;;1.50;99.90;;;;;;4950434;28;20185;-96
2020/12/21 08:59:57;;;;;;;64.27;26.23;;;1.50;99.90;;;;;;4954927;28;20243;-96
2020/12/21 09:02:23;;;;;;;63.83;26.00;;;3.80;99.90;;;;;;4946512;28;20185;-90
2020/12/21 09:05:22;;;;;;;61.17;26.07;;;2.60;99.90;;;;;;4978057;28;20200;-95
2020/12/21 09:08:23;;;;;;;76.67;27.57;;;1.70;99.90;;;;;;4956841;28;20284;-96
2020/12/21 09:11:19;;;;;;;66.30;29.23;;;3.10;99.90;;;;;;4981953;28;20208;-96
2020/12/21 09:13:47;;;;;;;61.10;24.33;;;0.80;99.90;;;;;;4977841;28;20218;-96
2020/12/21 09:16:30;;;;;;;51.50;22.57;;;1.60;99.90;;;;;;4963623;28;20281;-96
2020/12/21 09:18:59;;;;;;;44.63;20.43;;;3.00;99.90;;;;;;4957387;28;20222;-96
2020/12/21 09:21:30;;;;;;;48.63;21.20;;;1.80;99.90;;;;;;4983085;28;20321;-93
2020/12/21 09:26:50;;;;;;;54.20;22.77;;;1.80;99.90;;;;;;5358792;23;20584;-94
2020/12/21 09:29:29;;;;;;;68.63;26.67;;;2.50;99.90;;;;;;5301809;23;20323;-96
2020/12/21 09:35:26;;;;;;;70.60;25.63;;;1.80;99.90;;;;;;2046868;23;20516;31
2020/12/21 09:37:51;;;;;;;73.73;29.97;;;0.90;99.90;;;;;;4973379;28;20314;-96
2020/12/21 09:43:18;;;;;;;66.30;26.93;;;2.10;99.90;;;;;;4962648;28;20190;-96
2020/12/21 09:45:46;;;;;;;80.80;39.13;;;1.90;99.90;;;;;;4961176;28;20186;-94
2020/12/21 09:48:14;;;;;;;60.80;26.93;;;2.60;99.90;;;;;;4958847;28;20281;-94
2020/12/21 09:50:40;;;;;;;64.33;28.70;;;3.70;99.90;;;;;;4959340;28;20191;-96
2020/12/21 09:53:06;;;;;;;78.07;32.83;;;2.00;99.90;;;;;;4958693;28;20213;-93
2020/12/21 09:55:32;;;;;;;64.00;30.70;;;2.10;99.90;;;;;;4941681;28;20538;-94
2020/12/21 09:58:29;;;;;;;57.90;26.80;;;3.30;99.90;;;;;;4963215;28;20275;-95
2020/12/21 10:00:58;;;;;;;60.80;26.43;;;1.80;99.90;;;;;;5109255;23;20265;-96
2020/12/21 10:03:23;;;;;;;60.47;30.10;;;2.10;99.90;;;;;;4988698;28;20232;-95
2020/12/21 10:05:52;;;;;;;49.07;23.07;;;2.30;99.90;;;;;;4991605;28;20201;-95
2020/12/21 10:08:18;;;;;;;47.13;21.63;;;2.40;99.90;;;;;;5011157;28;20178;-87
2020/12/21 10:10:48;;;;;;;58.17;24.50;;;2.10;99.90;;;;;;5012087;28;20193;-89
2020/12/21 10:13:14;;;;;;;61.77;24.47;;;3.60;99.90;;;;;;5002953;28;20213;-93
2020/12/21 10:15:42;;;;;;;52.90;22.87;;;4.30;99.90;;;;;;5100281;23;20831;-89
2020/12/21 10:18:11;;;;;;;45.80;21.17;;;3.60;99.90;;;;;;4998244;28;20249;-93
2020/12/21 10:23:27;;;;;;;58.63;25.70;;;2.10;99.90;;;;;;5296186;23;20245;-94
2020/12/21 10:25:55;;;;;;;46.97;23.57;;;1.20;99.90;;;;;;5345061;23;20328;-88
2020/12/21 10:28:21;;;;;;;51.87;23.73;;;4.70;99.90;;;;;;4957272;28;20290;-88
2020/12/21 10:30:46;;;;;;;52.77;26.37;;;2.40;99.90;;;;;;4968066;28;20258;-90
2020/12/21 10:33:14;;;;;;;52.47;24.73;;;4.00;99.90;;;;;;4958985;28;20257;-88
2020/12/21 10:35:43;;;;;;;59.33;25.60;;;2.30;99.90;;;;;;4965436;29;20188;-92
2020/12/21 10:38:53;;;;;;;51.00;22.33;;;2.10;99.90;;;;;;5114948;23;20333;-94
2020/12/21 10:41:53;;;;;;;52.47;23.23;;;1.50;99.90;;;;;;4976367;28;20226;-92
2020/12/21 10:49:47;;;;;;;58.73;26.43;;;2.00;99.90;;;;;;4978847;28;20524;-91
2020/12/21 10:52:15;;;;;;;53.23;24.23;;;2.40;99.90;;;;;;4975961;28;20237;-91
2020/12/21 10:54:51;;;;;;;55.30;25.43;;;3.80;99.90;;;;;;4973479;28;20262;-94
2020/12/21 10:57:19;;;;;;;51.43;23.93;;;2.70;99.90;;;;;;4967414;28;20221;-92
2020/12/21 10:59:45;;;;;;;58.67;25.27;;;2.30;99.90;;;;;;4969600;28;20234;-91
2020/12/21 11:02:16;;;;;;;59.47;25.07;;;2.70;99.90;;;;;;4953305;28;20213;-93
2020/12/21 11:04:44;;;;;;;67.40;27.27;;;2.40;99.90;;;;;;4958451;28;20183;-92
2020/12/21 11:07:15;;;;;;;64.30;28.87;;;2.40;99.90;;;;;;4973461;28;20206;-91
2020/12/21 11:09:41;;;;;;;55.40;26.13;;;2.30;99.90;;;;;;4936778;28;20606;-90
2020/12/21 11:12:10;;;;;;;57.90;27.40;;;2.30;99.90;;;;;;4944899;29;20237;-91
2020/12/21 11:14:35;;;;;;;49.07;21.97;;;2.40;99.90;;;;;;4973001;28;20195;-91
2020/12/21 11:17:06;;;;;;;47.30;21.33;;;2.40;99.90;;;;;;4956776;28;20264;-94
2020/12/21 11:19:32;;;;;;;60.53;26.03;;;2.20;99.90;;;;;;4959534;28;20179;-93
2020/12/21 11:21:58;;;;;;;47.90;22.70;;;1.70;99.90;;;;;;4940614;28;20187;-92
2020/12/21 11:24:24;;;;;;;57.80;27.77;;;2.10;99.90;;;;;;4975236;28;20694;-92
2020/12/21 11:26:53;;;;;;;62.63;24.93;;;3.60;99.90;;;;;;4927490;28;20182;-91
2020/12/21 11:29:22;;;;;;;52.13;22.97;;;2.20;99.90;;;;;;4958815;28;20195;-90
2020/12/21 11:31:48;;;;;;;67.87;25.43;;;4.10;99.90;;;;;;4958620;28;20176;-93
2020/12/21 11:34:25;;;;;;;71.27;28.60;;;2.30;99.90;;;;;;4974814;28;20298;-93
2020/12/21 11:36:50;;;;;;;59.40;26.30;;;4.30;99.90;;;;;;4974433;28;20182;-89
2020/12/21 11:39:26;;;;;;;;;;;;;;;;;;;;;
2020/12/21 11:42:23;;;;;;;55.33;25.37;;;2.20;99.90;;;;;;4974880;28;20183;-93
2020/12/21 11:44:53;;;;;;;63.57;27.50;;;3.70;99.90;;;;;;4976389;28;20635;-95
2020/12/21 11:47:28;;;;;;;56.97;24.83;;;2.50;99.90;;;;;;4970109;28;20686;-95
2020/12/21 11:49:57;;;;;;;62.23;26.30;;;3.80;99.90;;;;;;4977691;28;20195;-91
2020/12/21 11:52:25;;;;;;;68.93;30.47;;;2.20;99.90;;;;;;4978818;28;20223;-90
2020/12/21 11:54:52;;;;;;;72.00;28.87;;;2.40;99.90;;;;;;4977530;28;20196;-92
2020/12/21 11:57:18;;;;;;;75.10;30.47;;;3.10;99.90;;;;;;4977009;28;20243;-89
2020/12/21 11:59:44;;;;;;;68.57;29.27;;;2.20;99.90;;;;;;4960918;28;20198;-91
2020/12/21 12:02:12;;;;;;;49.37;22.43;;;2.30;99.90;;;;;;4975799;28;20632;-91
2020/12/21 12:04:38;;;;;;;55.20;25.77;;;2.20;99.90;;;;;;4976967;28;20223;-89
2020/12/21 12:07:04;;;;;;;55.70;24.97;;;2.30;99.90;;;;;;4994001;28;20202;-90
2020/12/21 12:09:30;;;;;;;61.47;27.53;;;2.30;99.90;;;;;;4977653;28;20190;-94
2020/12/21 12:11:56;;;;;;;59.60;26.23;;;2.20;99.90;;;;;;4977670;28;20204;-91
2020/12/21 12:14:23;;;;;;;63.90;27.37;;;3.50;99.90;;;;;;4968104;28;20248;-92
2020/12/21 12:16:49;;;;;;;60.13;25.73;;;2.10;99.90;;;;;;4978390;28;20196;-91
2020/12/21 12:19:15;;;;;;;61.40;25.90;;;2.20;99.90;;;;;;4974997;28;20183;-92
2020/12/21 12:21:44;;;;;;;57.33;25.73;;;2.50;99.90;;;;;;4976925;28;20182;-91
2020/12/21 12:24:09;;;;;;;69.47;27.90;;;2.10;99.90;;;;;;4976361;28;20199;-93
2020/12/21 12:26:35;;;;;;;59.87;25.13;;;2.40;99.90;;;;;;4960426;28;20179;-92
2020/12/21 12:29:01;;;;;;;54.27;24.87;;;4.50;99.90;;;;;;4961524;28;20237;-91
2020/12/21 12:31:28;;;;;;;67.63;28.73;;;2.10;99.90;;;;;;4961063;28;20187;-91
2020/12/21 12:33:54;;;;;;;60.00;26.07;;;2.40;99.90;;;;;;4971354;28;20210;-92
2020/12/21 12:36:24;;;;;;;61.43;27.13;;;2.50;99.90;;;;;;4960248;28;20204;-91
2020/12/21 12:38:53;;;;;;;61.80;26.80;;;2.20;99.90;;;;;;4972602;28;20207;-92
2020/12/21 12:41:19;;;;;;;68.97;28.67;;;2.30;99.90;;;;;;4983871;28;20228;-91
2020/12/21 12:43:48;;;;;;;52.07;26.27;;;2.80;99.90;;;;;;4990835;28;20217;-90
2020/12/21 12:46:13;;;;;;;62.73;24.90;;;2.20;99.90;;;;;;4965941;28;20246;-95
2020/12/21 12:48:39;;;;;;;52.13;24.13;;;3.40;99.90;;;;;;4951546;28;20615;-91
2020/12/21 12:51:05;;;;;;;52.87;25.60;;;2.10;99.90;;;;;;4966907;28;20277;-92
2020/12/21 12:53:31;;;;;;;60.70;28.40;;;2.30;99.90;;;;;;4966654;28;20207;-91
2020/12/21 12:56:00;;;;;;;46.70;21.70;;;4.00;99.90;;;;;;4967946;28;20729;-93
2020/12/21 12:58:26;;;;;;;53.07;23.70;;;4.10;99.90;;;;;;4957626;28;20234;-90
2020/12/21 13:00:52;;;;;;;57.63;24.53;;;1.50;99.90;;;;;;4972649;28;20557;-92
2020/12/21 13:03:18;;;;;;;54.00;26.07;;;2.20;99.90;;;;;;4976292;28;20288;-91
2020/12/21 13:05:44;;;;;;;57.63;25.17;;;2.30;99.90;;;;;;4976858;28;20178;-92
2020/12/21 13:08:10;;;;;;;56.53;24.77;;;2.10;99.90;;;;;;4993036;28;20183;-93
2020/12/21 13:10:36;;;;;;;62.30;28.57;;;2.40;99.90;;;;;;4992543;28;20233;-92
2020/12/21 13:13:04;;;;;;;48.63;22.53;;;2.20;99.90;;;;;;4978556;28;20212;-91
2020/12/21 13:15:31;;;;;;;48.30;24.70;;;2.10;99.90;;;;;;4962323;28;20182;-88
2020/12/21 13:17:59;;;;;;;58.07;28.03;;;2.20;99.90;;;;;;4975372;28;20189;-89
2020/12/21 13:20:27;;;;;;;62.00;28.30;;;2.90;99.90;;;;;;4948816;28;20325;-89